sensor_id;sensor_type;location;lat;lon;timestamp;temperature;humidity
57833;DHT22;43667;53.036;6.740;2022-08-11T00:01:48;17.30;99.90
57833;DHT22;43667;53.036;6.740;2022-08-11T00:04:14;17.20;99.90
57833;DHT22;43667;53.036;6.740;2022-08-11T00:06:41;17.20;99.90
57833;DHT22;43667;53.036;6.740;2022-08-11T00:09:10;17.20;99.90
57833;DHT22;43667;53.036;6.740;2022-08-11T00:11:40;17.10;99.90
57833;DHT22;43667;53.036;6.740;2022-08-11T00:14:20;17.10;99.90
57833;DHT22;43667;53.036;6.740;2022-08-11T00:17:04;17.10;99.90
57833;DHT22;43667;53.036;6.740;2022-08-11T00:19:37;17.10;99.90
57833;DHT22;43667;53.036;6.740;2022-08-11T00:22:04;17.00;99.90
57833;DHT22;43667;53.036;6.740;2022-08-11T00:24:38;17.00;99.90
57833;DHT22;43667;53.036;6.740;2022-08-11T00:27:05;17.00;99.90
57833;DHT22;43667;53.036;6.740;2022-08-11T00:29:31;17.00;99.90
57833;DHT22;43667;53.036;6.740;2022-08-11T00:32:00;16.90;99.90
57833;DHT22;43667;53.036;6.740;2022-08-11T00:34:29;16.90;99.90
57833;DHT22;43667;53.036;6.740;2022-08-11T00:37:03;16.90;99.90
57833;DHT22;43667;53.036;6.740;2022-08-11T00:39:33;16.90;99.90
57833;DHT22;43667;53.036;6.740;2022-08-11T00:45:08;16.80;99.90
57833;DHT22;43667;53.036;6.740;2022-08-11T00:48:02;16.80;99.90
57833;DHT22;43667;53.036;6.740;2022-08-11T00:53:32;16.70;99.90
57833;DHT22;43667;53.036;6.740;2022-08-11T00:59:05;16.70;99.90
57833;DHT22;43667;53.036;6.740;2022-08-11T01:13:59;16.70;99.90
57833;DHT22;43667;53.036;6.740;2022-08-11T01:19:45;16.60;99.90
57833;DHT22;43667;53.036;6.740;2022-08-11T01:22:49;16.60;99.90
57833;DHT22;43667;53.036;6.740;2022-08-11T01:46:38;16.50;99.90
57833;DHT22;43667;53.036;6.740;2022-08-11T01:49:25;16.50;99.90
57833;DHT22;43667;53.036;6.740;2022-08-11T01:52:14;16.50;99.90
57833;DHT22;43667;53.036;6.740;2022-08-11T01:54:49;16.50;99.90
57833;DHT22;43667;53.036;6.740;2022-08-11T02:00:14;16.40;99.90
57833;DHT22;43667;53.036;6.740;2022-08-11T02:02:57;16.40;99.90
57833;DHT22;43667;53.036;6.740;2022-08-11T02:08:48;16.40;99.90
57833;DHT22;43667;53.036;6.740;2022-08-11T02:14:23;16.30;99.90
57833;DHT22;43667;53.036;6.740;2022-08-11T02:17:01;16.30;99.90
57833;DHT22;43667;53.036;6.740;2022-08-11T02:22:41;16.30;99.90
57833;DHT22;43667;53.036;6.740;2022-08-11T02:31:10;16.30;99.90
57833;DHT22;43667;53.036;6.740;2022-08-11T02:34:04;16.30;99.90
57833;DHT22;43667;53.036;6.740;2022-08-11T02:36:48;16.20;99.90
57833;DHT22;43667;53.036;6.740;2022-08-11T02:39:17;16.20;99.90
57833;DHT22;43667;53.036;6.740;2022-08-11T02:42:06;16.20;99.90
57833;DHT22;43667;53.036;6.740;2022-08-11T02:45:01;16.20;99.90
57833;DHT22;43667;53.036;6.740;2022-08-11T02:56:44;16.10;99.90
57833;DHT22;43667;53.036;6.740;2022-08-11T03:08:02;16.00;99.90
57833;DHT22;43667;53.036;6.740;2022-08-11T03:10:35;15.90;99.90
57833;DHT22;43667;53.036;6.740;2022-08-11T03:13:27;15.90;99.90
57833;DHT22;43667;53.036;6.740;2022-08-11T03:16:23;15.90;99.90
57833;DHT22;43667;53.036;6.740;2022-08-11T03:22:39;15.90;99.90
57833;DHT22;43667;53.036;6.740;2022-08-11T03:25:33;15.90;99.90
57833;DHT22;43667;53.036;6.740;2022-08-11T03:28:33;15.90;99.90
57833;DHT22;43667;53.036;6.740;2022-08-11T03:31:27;15.80;99.90
57833;DHT22;43667;53.036;6.740;2022-08-11T03:34:02;15.80;99.90
57833;DHT22;43667;53.036;6.740;2022-08-11T03:42:13;15.80;99.90
57833;DHT22;43667;53.036;6.740;2022-08-11T03:47:38;15.70;99.90
57833;DHT22;43667;53.036;6.740;2022-08-11T03:50:29;15.60;99.90
57833;DHT22;43667;53.036;6.740;2022-08-11T03:53:16;15.70;99.90
57833;DHT22;43667;53.036;6.740;2022-08-11T04:34:35;15.50;99.90
57833;DHT22;43667;53.036;6.740;2022-08-11T04:37:19;15.50;99.90
57833;DHT22;43667;53.036;6.740;2022-08-11T04:52:06;15.50;99.90
57833;DHT22;43667;53.036;6.740;2022-08-11T04:55:38;15.60;99.90
57833;DHT22;43667;53.036;6.740;2022-08-11T05:02:03;15.60;99.90
57833;DHT22;43667;53.036;6.740;2022-08-11T05:08:00;15.60;99.90
57833;DHT22;43667;53.036;6.740;2022-08-11T05:10:52;15.70;99.90
57833;DHT22;43667;53.036;6.740;2022-08-11T05:13:32;15.70;99.90
57833;DHT22;43667;53.036;6.740;2022-08-11T05:16:49;15.80;99.90
57833;DHT22;43667;53.036;6.740;2022-08-11T05:19:35;15.80;99.90
57833;DHT22;43667;53.036;6.740;2022-08-11T05:22:24;15.90;99.90
57833;DHT22;43667;53.036;6.740;2022-08-11T05:25:14;15.90;99.90
57833;DHT22;43667;53.036;6.740;2022-08-11T05:28:10;16.00;99.90
57833;DHT22;43667;53.036;6.740;2022-08-11T05:30:56;16.10;99.90
57833;DHT22;43667;53.036;6.740;2022-08-11T05:33:50;16.10;99.90
57833;DHT22;43667;53.036;6.740;2022-08-11T05:37:12;16.10;99.90
57833;DHT22;43667;53.036;6.740;2022-08-11T05:39:38;16.20;99.90
57833;DHT22;43667;53.036;6.740;2022-08-11T05:42:25;16.20;99.90
57833;DHT22;43667;53.036;6.740;2022-08-11T05:45:13;16.30;99.90
57833;DHT22;43667;53.036;6.740;2022-08-11T05:47:58;16.40;99.90
57833;DHT22;43667;53.036;6.740;2022-08-11T05:50:57;16.50;99.90
57833;DHT22;43667;53.036;6.740;2022-08-11T05:53:53;16.70;99.90
57833;DHT22;43667;53.036;6.740;2022-08-11T05:56:49;16.80;99.90
57833;DHT22;43667;53.036;6.740;2022-08-11T05:59:18;16.90;99.90
57833;DHT22;43667;53.036;6.740;2022-08-11T06:01:45;17.00;99.90
57833;DHT22;43667;53.036;6.740;2022-08-11T06:04:17;17.10;99.90
57833;DHT22;43667;53.036;6.740;2022-08-11T06:06:55;17.20;99.90
57833;DHT22;43667;53.036;6.740;2022-08-11T06:09:30;17.30;99.90
57833;DHT22;43667;53.036;6.740;2022-08-11T06:12:06;17.40;99.90
57833;DHT22;43667;53.036;6.740;2022-08-11T06:14:33;17.60;99.90
57833;DHT22;43667;53.036;6.740;2022-08-11T06:17:02;17.80;99.90
57833;DHT22;43667;53.036;6.740;2022-08-11T06:19:37;17.90;99.90
57833;DHT22;43667;53.036;6.740;2022-08-11T06:22:06;18.00;99.90
57833;DHT22;43667;53.036;6.740;2022-08-11T06:24:34;18.20;99.90
57833;DHT22;43667;53.036;6.740;2022-08-11T06:27:02;18.30;99.90
57833;DHT22;43667;53.036;6.740;2022-08-11T06:29:31;18.50;99.90
57833;DHT22;43667;53.036;6.740;2022-08-11T06:32:00;18.60;99.90
57833;DHT22;43667;53.036;6.740;2022-08-11T06:34:53;18.70;99.90
57833;DHT22;43667;53.036;6.740;2022-08-11T06:40:41;19.10;99.90
57833;DHT22;43667;53.036;6.740;2022-08-11T06:43:19;19.40;99.90
57833;DHT22;43667;53.036;6.740;2022-08-11T06:46:06;19.60;99.90
57833;DHT22;43667;53.036;6.740;2022-08-11T06:48:33;19.70;99.90
57833;DHT22;43667;53.036;6.740;2022-08-11T06:51:02;19.90;99.90
57833;DHT22;43667;53.036;6.740;2022-08-11T06:53:44;20.00;99.90
57833;DHT22;43667;53.036;6.740;2022-08-11T06:56:12;20.20;99.90
57833;DHT22;43667;53.036;6.740;2022-08-11T06:58:59;20.30;99.90
57833;DHT22;43667;53.036;6.740;2022-08-11T07:04:51;20.70;99.90
57833;DHT22;43667;53.036;6.740;2022-08-11T07:11:24;21.10;99.90
57833;DHT22;43667;53.036;6.740;2022-08-11T07:14:11;21.30;99.90
57833;DHT22;43667;53.036;6.740;2022-08-11T07:16:59;21.50;99.90
57833;DHT22;43667;53.036;6.740;2022-08-11T07:19:28;21.70;99.90
57833;DHT22;43667;53.036;6.740;2022-08-11T07:22:13;21.90;99.90
57833;DHT22;43667;53.036;6.740;2022-08-11T07:25:12;22.10;99.90
57833;DHT22;43667;53.036;6.740;2022-08-11T07:28:23;22.30;99.90
57833;DHT22;43667;53.036;6.740;2022-08-11T07:31:15;22.60;99.90
57833;DHT22;43667;53.036;6.740;2022-08-11T07:33:49;22.90;99.90
57833;DHT22;43667;53.036;6.740;2022-08-11T07:36:16;23.10;99.90
57833;DHT22;43667;53.036;6.740;2022-08-11T07:38:46;23.30;99.90
57833;DHT22;43667;53.036;6.740;2022-08-11T07:41:18;23.50;99.90
57833;DHT22;43667;53.036;6.740;2022-08-11T07:43:47;23.70;99.60
57833;DHT22;43667;53.036;6.740;2022-08-11T07:46:14;23.90;98.60
57833;DHT22;43667;53.036;6.740;2022-08-11T07:49:01;24.10;97.20
57833;DHT22;43667;53.036;6.740;2022-08-11T07:51:45;24.20;96.60
57833;DHT22;43667;53.036;6.740;2022-08-11T07:54:30;24.30;96.70
57833;DHT22;43667;53.036;6.740;2022-08-11T07:56:57;24.60;95.60
57833;DHT22;43667;53.036;6.740;2022-08-11T07:59:24;24.70;94.20
57833;DHT22;43667;53.036;6.740;2022-08-11T08:02:11;24.80;93.30
57833;DHT22;43667;53.036;6.740;2022-08-11T08:04:56;25.00;92.40
57833;DHT22;43667;53.036;6.740;2022-08-11T08:07:41;25.10;91.00
57833;DHT22;43667;53.036;6.740;2022-08-11T08:10:27;25.30;90.80
57833;DHT22;43667;53.036;6.740;2022-08-11T08:13:12;25.50;90.40
57833;DHT22;43667;53.036;6.740;2022-08-11T08:15:57;25.70;85.40
57833;DHT22;43667;53.036;6.740;2022-08-11T08:18:42;26.00;81.40
57833;DHT22;43667;53.036;6.740;2022-08-11T08:21:08;26.10;79.10
57833;DHT22;43667;53.036;6.740;2022-08-11T08:23:42;26.20;77.00
57833;DHT22;43667;53.036;6.740;2022-08-11T08:26:11;26.20;75.30
57833;DHT22;43667;53.036;6.740;2022-08-11T08:28:57;26.50;75.90
57833;DHT22;43667;53.036;6.740;2022-08-11T08:31:44;26.70;73.80
57833;DHT22;43667;53.036;6.740;2022-08-11T08:34:11;27.00;69.30
57833;DHT22;43667;53.036;6.740;2022-08-11T08:36:44;27.20;66.70
57833;DHT22;43667;53.036;6.740;2022-08-11T08:39:12;27.40;63.70
57833;DHT22;43667;53.036;6.740;2022-08-11T08:41:38;27.40;64.80
57833;DHT22;43667;53.036;6.740;2022-08-11T08:44:10;27.70;63.70
57833;DHT22;43667;53.036;6.740;2022-08-11T08:46:41;27.90;61.70
57833;DHT22;43667;53.036;6.740;2022-08-11T08:49:09;27.90;60.10
57833;DHT22;43667;53.036;6.740;2022-08-11T08:51:39;28.10;59.60
57833;DHT22;43667;53.036;6.740;2022-08-11T08:54:16;28.30;58.50
57833;DHT22;43667;53.036;6.740;2022-08-11T08:56:44;28.50;57.80
57833;DHT22;43667;53.036;6.740;2022-08-11T08:59:12;28.70;57.70
57833;DHT22;43667;53.036;6.740;2022-08-11T09:01:49;28.80;55.90
57833;DHT22;43667;53.036;6.740;2022-08-11T09:04:16;28.90;55.50
57833;DHT22;43667;53.036;6.740;2022-08-11T09:06:44;29.00;54.30
57833;DHT22;43667;53.036;6.740;2022-08-11T09:09:11;29.10;53.20
57833;DHT22;43667;53.036;6.740;2022-08-11T09:11:39;29.10;53.00
57833;DHT22;43667;53.036;6.740;2022-08-11T09:14:16;29.30;53.00
57833;DHT22;43667;53.036;6.740;2022-08-11T09:16:42;29.40;50.70
57833;DHT22;43667;53.036;6.740;2022-08-11T09:19:10;29.40;50.50
57833;DHT22;43667;53.036;6.740;2022-08-11T09:21:49;29.50;49.70
57833;DHT22;43667;53.036;6.740;2022-08-11T09:24:36;29.70;49.50
57833;DHT22;43667;53.036;6.740;2022-08-11T09:27:22;29.80;49.40
57833;DHT22;43667;53.036;6.740;2022-08-11T09:29:48;29.80;48.20
57833;DHT22;43667;53.036;6.740;2022-08-11T09:32:19;29.90;48.20
57833;DHT22;43667;53.036;6.740;2022-08-11T09:34:46;30.20;48.00
57833;DHT22;43667;53.036;6.740;2022-08-11T09:37:12;30.20;47.60
57833;DHT22;43667;53.036;6.740;2022-08-11T09:39:56;30.40;47.10
57833;DHT22;43667;53.036;6.740;2022-08-11T09:42:42;30.50;44.90
57833;DHT22;43667;53.036;6.740;2022-08-11T09:45:27;30.60;45.10
57833;DHT22;43667;53.036;6.740;2022-08-11T09:47:53;30.70;44.40
57833;DHT22;43667;53.036;6.740;2022-08-11T09:50:19;30.70;45.00
57833;DHT22;43667;53.036;6.740;2022-08-11T09:52:46;30.80;44.30
57833;DHT22;43667;53.036;6.740;2022-08-11T09:55:15;30.80;43.50
57833;DHT22;43667;53.036;6.740;2022-08-11T09:57:45;30.80;43.50
57833;DHT22;43667;53.036;6.740;2022-08-11T10:00:32;30.80;42.10
57833;DHT22;43667;53.036;6.740;2022-08-11T10:03:03;30.80;43.70
57833;DHT22;43667;53.036;6.740;2022-08-11T10:05:32;30.90;42.90
57833;DHT22;43667;53.036;6.740;2022-08-11T10:08:17;31.10;42.30
57833;DHT22;43667;53.036;6.740;2022-08-11T10:10:46;31.20;41.50
57833;DHT22;43667;53.036;6.740;2022-08-11T10:13:20;31.40;41.60
57833;DHT22;43667;53.036;6.740;2022-08-11T10:15:47;31.50;40.50
57833;DHT22;43667;53.036;6.740;2022-08-11T10:18:15;31.40;41.40
57833;DHT22;43667;53.036;6.740;2022-08-11T10:21:13;31.50;41.10
57833;DHT22;43667;53.036;6.740;2022-08-11T10:23:39;31.40;40.30
57833;DHT22;43667;53.036;6.740;2022-08-11T10:26:27;31.30;40.80
57833;DHT22;43667;53.036;6.740;2022-08-11T10:29:13;31.40;40.50
57833;DHT22;43667;53.036;6.740;2022-08-11T10:31:58;31.40;40.00
57833;DHT22;43667;53.036;6.740;2022-08-11T10:34:46;31.70;40.90
57833;DHT22;43667;53.036;6.740;2022-08-11T10:37:12;31.80;39.90
57833;DHT22;43667;53.036;6.740;2022-08-11T10:39:39;31.80;39.70
57833;DHT22;43667;53.036;6.740;2022-08-11T10:42:06;31.80;38.90
57833;DHT22;43667;53.036;6.740;2022-08-11T10:44:53;31.80;39.50
57833;DHT22;43667;53.036;6.740;2022-08-11T10:47:20;31.80;38.90
57833;DHT22;43667;53.036;6.740;2022-08-11T10:50:08;31.80;40.30
57833;DHT22;43667;53.036;6.740;2022-08-11T10:52:54;31.80;38.50
57833;DHT22;43667;53.036;6.740;2022-08-11T10:55:42;31.80;38.90
57833;DHT22;43667;53.036;6.740;2022-08-11T10:58:27;31.80;38.20
57833;DHT22;43667;53.036;6.740;2022-08-11T11:01:13;31.90;37.80
57833;DHT22;43667;53.036;6.740;2022-08-11T11:03:40;32.00;38.40
57833;DHT22;43667;53.036;6.740;2022-08-11T11:06:30;32.20;38.00
57833;DHT22;43667;53.036;6.740;2022-08-11T11:09:12;32.20;37.10
57833;DHT22;43667;53.036;6.740;2022-08-11T11:11:53;32.30;37.40
57833;DHT22;43667;53.036;6.740;2022-08-11T11:14:41;32.40;38.30
57833;DHT22;43667;53.036;6.740;2022-08-11T11:17:28;32.30;37.30
57833;DHT22;43667;53.036;6.740;2022-08-11T11:20:18;32.20;37.80
57833;DHT22;43667;53.036;6.740;2022-08-11T11:22:44;32.40;36.90
57833;DHT22;43667;53.036;6.740;2022-08-11T11:28:18;32.50;36.30
57833;DHT22;43667;53.036;6.740;2022-08-11T11:31:01;32.50;37.70
57833;DHT22;43667;53.036;6.740;2022-08-11T11:34:00;32.60;37.20
57833;DHT22;43667;53.036;6.740;2022-08-11T11:36:49;32.70;37.00
57833;DHT22;43667;53.036;6.740;2022-08-11T11:39:20;32.70;36.90
57833;DHT22;43667;53.036;6.740;2022-08-11T11:41:48;32.70;36.60
57833;DHT22;43667;53.036;6.740;2022-08-11T11:44:14;32.80;36.90
57833;DHT22;43667;53.036;6.740;2022-08-11T11:46:40;32.90;36.20
57833;DHT22;43667;53.036;6.740;2022-08-11T11:49:07;33.10;36.80
57833;DHT22;43667;53.036;6.740;2022-08-11T11:51:35;33.10;37.40
57833;DHT22;43667;53.036;6.740;2022-08-11T11:54:01;33.10;36.20
57833;DHT22;43667;53.036;6.740;2022-08-11T11:56:30;33.10;36.50
57833;DHT22;43667;53.036;6.740;2022-08-11T11:58:56;33.20;36.70
57833;DHT22;43667;53.036;6.740;2022-08-11T12:01:41;33.10;35.10
57833;DHT22;43667;53.036;6.740;2022-08-11T12:04:11;32.90;34.60
57833;DHT22;43667;53.036;6.740;2022-08-11T12:06:38;32.90;34.70
57833;DHT22;43667;53.036;6.740;2022-08-11T12:09:04;33.00;34.70
57833;DHT22;43667;53.036;6.740;2022-08-11T12:11:31;33.00;34.40
57833;DHT22;43667;53.036;6.740;2022-08-11T12:14:18;33.20;34.40
57833;DHT22;43667;53.036;6.740;2022-08-11T12:16:46;33.30;34.10
57833;DHT22;43667;53.036;6.740;2022-08-11T12:19:17;33.40;34.40
57833;DHT22;43667;53.036;6.740;2022-08-11T12:21:45;33.50;34.60
57833;DHT22;43667;53.036;6.740;2022-08-11T12:24:32;33.30;34.80
57833;DHT22;43667;53.036;6.740;2022-08-11T12:27:17;33.10;34.40
57833;DHT22;43667;53.036;6.740;2022-08-11T12:29:54;33.10;34.40
57833;DHT22;43667;53.036;6.740;2022-08-11T12:32:22;33.10;34.30
57833;DHT22;43667;53.036;6.740;2022-08-11T12:34:49;33.30;34.20
57833;DHT22;43667;53.036;6.740;2022-08-11T12:37:20;33.30;33.80
57833;DHT22;43667;53.036;6.740;2022-08-11T12:39:49;33.40;33.90
57833;DHT22;43667;53.036;6.740;2022-08-11T12:42:36;33.50;34.00
57833;DHT22;43667;53.036;6.740;2022-08-11T12:45:25;33.50;34.20
57833;DHT22;43667;53.036;6.740;2022-08-11T12:48:07;33.40;33.40
57833;DHT22;43667;53.036;6.740;2022-08-11T12:51:00;33.30;33.50
57833;DHT22;43667;53.036;6.740;2022-08-11T12:57:14;33.30;32.20
57833;DHT22;43667;53.036;6.740;2022-08-11T13:00:00;33.40;32.80
57833;DHT22;43667;53.036;6.740;2022-08-11T13:02:46;33.50;34.20
57833;DHT22;43667;53.036;6.740;2022-08-11T13:05:31;33.60;33.80
57833;DHT22;43667;53.036;6.740;2022-08-11T13:07:59;33.80;33.60
57833;DHT22;43667;53.036;6.740;2022-08-11T13:10:27;33.90;32.50
57833;DHT22;43667;53.036;6.740;2022-08-11T13:13:12;34.00;32.60
57833;DHT22;43667;53.036;6.740;2022-08-11T13:15:39;33.90;32.40
57833;DHT22;43667;53.036;6.740;2022-08-11T13:18:05;33.80;33.20
57833;DHT22;43667;53.036;6.740;2022-08-11T13:20:35;33.80;34.20
57833;DHT22;43667;53.036;6.740;2022-08-11T13:23:02;33.80;33.30
57833;DHT22;43667;53.036;6.740;2022-08-11T13:25:30;33.70;33.30
57833;DHT22;43667;53.036;6.740;2022-08-11T13:27:58;33.80;33.40
57833;DHT22;43667;53.036;6.740;2022-08-11T13:30:27;33.80;33.70
57833;DHT22;43667;53.036;6.740;2022-08-11T13:33:13;33.90;34.10
57833;DHT22;43667;53.036;6.740;2022-08-11T13:35:41;33.90;34.30
57833;DHT22;43667;53.036;6.740;2022-08-11T13:38:08;33.90;34.50
57833;DHT22;43667;53.036;6.740;2022-08-11T13:40:39;34.00;34.40
57833;DHT22;43667;53.036;6.740;2022-08-11T13:43:05;33.90;33.90
57833;DHT22;43667;53.036;6.740;2022-08-11T13:45:31;33.60;34.30
57833;DHT22;43667;53.036;6.740;2022-08-11T13:47:59;33.50;34.40
57833;DHT22;43667;53.036;6.740;2022-08-11T13:50:25;33.60;34.40
57833;DHT22;43667;53.036;6.740;2022-08-11T13:53:10;33.60;34.20
57833;DHT22;43667;53.036;6.740;2022-08-11T13:55:38;33.50;34.20
57833;DHT22;43667;53.036;6.740;2022-08-11T13:58:05;33.60;33.80
57833;DHT22;43667;53.036;6.740;2022-08-11T14:00:32;33.70;35.00
57833;DHT22;43667;53.036;6.740;2022-08-11T14:02:58;33.70;33.90
57833;DHT22;43667;53.036;6.740;2022-08-11T14:05:27;33.70;33.60
57833;DHT22;43667;53.036;6.740;2022-08-11T14:07:59;33.70;33.90
57833;DHT22;43667;53.036;6.740;2022-08-11T14:10:28;33.50;33.60
57833;DHT22;43667;53.036;6.740;2022-08-11T14:12:59;33.50;34.40
57833;DHT22;43667;53.036;6.740;2022-08-11T14:15:46;33.60;34.10
57833;DHT22;43667;53.036;6.740;2022-08-11T14:18:18;33.50;34.30
57833;DHT22;43667;53.036;6.740;2022-08-11T14:20:49;33.20;34.30
57833;DHT22;43667;53.036;6.740;2022-08-11T14:23:37;33.10;34.40
57833;DHT22;43667;53.036;6.740;2022-08-11T14:26:04;33.10;34.30
57833;DHT22;43667;53.036;6.740;2022-08-11T14:28:52;33.10;34.40
57833;DHT22;43667;53.036;6.740;2022-08-11T14:31:21;33.20;34.30
57833;DHT22;43667;53.036;6.740;2022-08-11T14:33:48;33.30;34.20
57833;DHT22;43667;53.036;6.740;2022-08-11T14:36:15;33.30;33.90
57833;DHT22;43667;53.036;6.740;2022-08-11T14:38:41;33.50;33.80
57833;DHT22;43667;53.036;6.740;2022-08-11T14:41:07;33.50;34.10
57833;DHT22;43667;53.036;6.740;2022-08-11T14:43:56;33.40;34.30
57833;DHT22;43667;53.036;6.740;2022-08-11T14:46:42;33.50;34.40
57833;DHT22;43667;53.036;6.740;2022-08-11T14:49:28;33.30;34.90
57833;DHT22;43667;53.036;6.740;2022-08-11T14:51:54;33.30;35.10
57833;DHT22;43667;53.036;6.740;2022-08-11T14:54:23;33.10;34.50
57833;DHT22;43667;53.036;6.740;2022-08-11T14:57:09;33.10;34.50
57833;DHT22;43667;53.036;6.740;2022-08-11T14:59:36;33.30;34.50
57833;DHT22;43667;53.036;6.740;2022-08-11T15:02:03;33.30;34.60
57833;DHT22;43667;53.036;6.740;2022-08-11T15:04:52;33.50;34.00
57833;DHT22;43667;53.036;6.740;2022-08-11T15:07:21;33.70;34.60
57833;DHT22;43667;53.036;6.740;2022-08-11T15:09:58;33.80;35.50
57833;DHT22;43667;53.036;6.740;2022-08-11T15:12:25;33.80;35.80
57833;DHT22;43667;53.036;6.740;2022-08-11T15:14:52;33.80;36.10
57833;DHT22;43667;53.036;6.740;2022-08-11T15:17:38;34.00;36.00
57833;DHT22;43667;53.036;6.740;2022-08-11T15:20:10;34.10;36.10
57833;DHT22;43667;53.036;6.740;2022-08-11T15:22:55;34.20;35.80
57833;DHT22;43667;53.036;6.740;2022-08-11T15:25:42;34.20;35.90
57833;DHT22;43667;53.036;6.740;2022-08-11T15:28:08;34.30;35.80
57833;DHT22;43667;53.036;6.740;2022-08-11T15:30:55;34.30;35.90
57833;DHT22;43667;53.036;6.740;2022-08-11T15:33:42;34.40;36.00
57833;DHT22;43667;53.036;6.740;2022-08-11T15:36:29;34.50;36.10
57833;DHT22;43667;53.036;6.740;2022-08-11T15:39:34;34.30;35.60
57833;DHT22;43667;53.036;6.740;2022-08-11T15:42:11;34.30;35.20
57833;DHT22;43667;53.036;6.740;2022-08-11T15:44:58;34.40;35.50
57833;DHT22;43667;53.036;6.740;2022-08-11T15:48:11;34.50;35.40
57833;DHT22;43667;53.036;6.740;2022-08-11T15:50:41;34.60;34.80
57833;DHT22;43667;53.036;6.740;2022-08-11T15:55:55;34.90;35.80
57833;DHT22;43667;53.036;6.740;2022-08-11T15:58:24;34.80;34.70
57833;DHT22;43667;53.036;6.740;2022-08-11T16:01:11;34.90;34.60
57833;DHT22;43667;53.036;6.740;2022-08-11T16:04:01;34.90;35.00
57833;DHT22;43667;53.036;6.740;2022-08-11T16:06:50;34.90;35.20
57833;DHT22;43667;53.036;6.740;2022-08-11T16:12:05;35.00;34.50
57833;DHT22;43667;53.036;6.740;2022-08-11T16:14:35;35.00;34.70
57833;DHT22;43667;53.036;6.740;2022-08-11T16:17:23;35.20;34.30
57833;DHT22;43667;53.036;6.740;2022-08-11T16:19:52;35.30;34.20
57833;DHT22;43667;53.036;6.740;2022-08-11T16:22:22;35.30;34.00
57833;DHT22;43667;53.036;6.740;2022-08-11T16:25:00;35.30;34.10
57833;DHT22;43667;53.036;6.740;2022-08-11T16:27:29;35.50;34.00
57833;DHT22;43667;53.036;6.740;2022-08-11T16:29:58;35.70;34.00
57833;DHT22;43667;53.036;6.740;2022-08-11T16:32:25;36.10;34.10
57833;DHT22;43667;53.036;6.740;2022-08-11T16:35:06;36.00;33.70
57833;DHT22;43667;53.036;6.740;2022-08-11T16:37:53;35.90;33.80
57833;DHT22;43667;53.036;6.740;2022-08-11T16:40:42;35.40;34.50
57833;DHT22;43667;53.036;6.740;2022-08-11T16:43:13;35.30;35.00
57833;DHT22;43667;53.036;6.740;2022-08-11T16:45:58;35.60;35.30
57833;DHT22;43667;53.036;6.740;2022-08-11T16:48:47;35.60;34.70
57833;DHT22;43667;53.036;6.740;2022-08-11T16:51:14;35.80;34.90
57833;DHT22;43667;53.036;6.740;2022-08-11T16:53:42;36.00;34.70
57833;DHT22;43667;53.036;6.740;2022-08-11T16:56:11;36.20;34.70
57833;DHT22;43667;53.036;6.740;2022-08-11T16:58:42;36.40;34.30
57833;DHT22;43667;53.036;6.740;2022-08-11T17:01:26;36.10;34.50
57833;DHT22;43667;53.036;6.740;2022-08-11T17:03:58;35.90;34.70
57833;DHT22;43667;53.036;6.740;2022-08-11T17:06:44;35.40;35.40
57833;DHT22;43667;53.036;6.740;2022-08-11T17:09:32;34.30;36.70
57833;DHT22;43667;53.036;6.740;2022-08-11T17:12:19;33.30;38.50
57833;DHT22;43667;53.036;6.740;2022-08-11T17:15:10;32.50;39.70
57833;DHT22;43667;53.036;6.740;2022-08-11T17:17:57;31.80;41.10
57833;DHT22;43667;53.036;6.740;2022-08-11T17:20:25;31.10;42.30
57833;DHT22;43667;53.036;6.740;2022-08-11T17:22:52;30.70;43.30
57833;DHT22;43667;53.036;6.740;2022-08-11T17:25:37;30.30;44.20
57833;DHT22;43667;53.036;6.740;2022-08-11T17:28:04;30.10;45.30
57833;DHT22;43667;53.036;6.740;2022-08-11T17:30:32;29.70;46.00
57833;DHT22;43667;53.036;6.740;2022-08-11T17:33:17;29.50;46.60
57833;DHT22;43667;53.036;6.740;2022-08-11T17:36:03;29.30;47.40
57833;DHT22;43667;53.036;6.740;2022-08-11T17:38:30;29.00;48.00
57833;DHT22;43667;53.036;6.740;2022-08-11T17:41:00;28.80;48.40
57833;DHT22;43667;53.036;6.740;2022-08-11T17:43:45;28.70;48.80
57833;DHT22;43667;53.036;6.740;2022-08-11T17:46:31;28.60;49.10
57833;DHT22;43667;53.036;6.740;2022-08-11T17:49:17;28.50;49.40
57833;DHT22;43667;53.036;6.740;2022-08-11T17:51:47;28.30;49.30
57833;DHT22;43667;53.036;6.740;2022-08-11T17:54:34;28.20;49.20
57833;DHT22;43667;53.036;6.740;2022-08-11T17:57:21;28.10;48.80
57833;DHT22;43667;53.036;6.740;2022-08-11T18:00:06;28.00;48.30
57833;DHT22;43667;53.036;6.740;2022-08-11T18:02:35;28.00;48.30
57833;DHT22;43667;53.036;6.740;2022-08-11T18:05:23;27.80;48.00
57833;DHT22;43667;53.036;6.740;2022-08-11T18:07:51;27.80;47.80
57833;DHT22;43667;53.036;6.740;2022-08-11T18:10:36;27.70;47.60
57833;DHT22;43667;53.036;6.740;2022-08-11T18:13:23;27.60;47.50
57833;DHT22;43667;53.036;6.740;2022-08-11T18:16:11;27.50;47.70
57833;DHT22;43667;53.036;6.740;2022-08-11T18:18:55;27.40;48.00
57833;DHT22;43667;53.036;6.740;2022-08-11T18:21:45;27.30;48.10
57833;DHT22;43667;53.036;6.740;2022-08-11T18:24:37;27.20;48.50
57833;DHT22;43667;53.036;6.740;2022-08-11T18:27:25;27.10;49.20
57833;DHT22;43667;53.036;6.740;2022-08-11T18:30:11;27.00;49.10
57833;DHT22;43667;53.036;6.740;2022-08-11T18:32:58;26.90;49.50
57833;DHT22;43667;53.036;6.740;2022-08-11T18:35:49;26.80;49.90
57833;DHT22;43667;53.036;6.740;2022-08-11T18:38:37;26.70;50.20
57833;DHT22;43667;53.036;6.740;2022-08-11T18:41:23;26.60;50.40
57833;DHT22;43667;53.036;6.740;2022-08-11T18:44:09;26.60;51.00
57833;DHT22;43667;53.036;6.740;2022-08-11T18:46:57;26.50;51.30
57833;DHT22;43667;53.036;6.740;2022-08-11T18:49:47;26.40;51.70
57833;DHT22;43667;53.036;6.740;2022-08-11T18:52:33;26.30;52.30
57833;DHT22;43667;53.036;6.740;2022-08-11T18:55:18;26.10;52.60
57833;DHT22;43667;53.036;6.740;2022-08-11T18:58:06;26.00;53.10
57833;DHT22;43667;53.036;6.740;2022-08-11T19:00:55;25.90;53.60
57833;DHT22;43667;53.036;6.740;2022-08-11T19:03:42;25.80;54.10
57833;DHT22;43667;53.036;6.740;2022-08-11T19:06:28;25.70;54.50
57833;DHT22;43667;53.036;6.740;2022-08-11T19:09:15;25.60;55.00
57833;DHT22;43667;53.036;6.740;2022-08-11T19:12:01;25.50;55.50
57833;DHT22;43667;53.036;6.740;2022-08-11T19:14:48;25.40;56.00
57833;DHT22;43667;53.036;6.740;2022-08-11T19:17:35;25.30;56.40
57833;DHT22;43667;53.036;6.740;2022-08-11T19:20:24;25.10;56.80
57833;DHT22;43667;53.036;6.740;2022-08-11T19:23:10;25.10;57.20
57833;DHT22;43667;53.036;6.740;2022-08-11T19:25:56;25.00;57.70
57833;DHT22;43667;53.036;6.740;2022-08-11T19:28:42;24.80;58.30
57833;DHT22;43667;53.036;6.740;2022-08-11T19:31:28;24.80;60.20
57833;DHT22;43667;53.036;6.740;2022-08-11T19:34:16;24.60;61.30